Time;durP1;ratioP1;P1;durP2;ratioP2;P2;SDS_P1;SDS_P2;PMS_P1;PMS_P2;Temp;Humidity;BMP_temperature;BMP_pressure;BME280_temperature;BME280_humidity;BME280_pressure;Samples;Min_cycle;Max_cycle;Signal;HPM_P1;HPM_P2
2021/07/07 00:01:28;;;;;;;13.48;7.35;;;;;;;19.91;53.80;100172.34;5052155;28;20053;-4
2021/07/07 00:03:54;;;;;;;14.32;8.30;;;;;;;20.56;53.33;100251.97;5052499;28;20045;-4
2021/07/07 00:06:20;;;;;;;18.35;7.30;;;;;;;20.07;53.21;100183.19;5053362;28;20048;-5
2021/07/07 00:08:46;;;;;;;18.65;7.65;;;;;;;20.02;53.65;100185.16;5053962;28;20041;-5
2021/07/07 00:11:12;;;;;;;15.43;7.53;;;;;;;20.19;53.48;100198.59;5053345;28;20097;-3
2021/07/07 00:13:38;;;;;;;14.85;8.10;;;;;;;20.08;53.25;100208.81;5052102;28;20036;-4
2021/07/07 00:16:04;;;;;;;16.95;7.93;;;;;;;19.89;53.66;100192.75;5053254;28;20037;-5
2021/07/07 00:18:32;;;;;;;20.05;7.25;;;;;;;20.26;53.84;100245.22;5053059;28;20500;-4
2021/07/07 00:20:58;;;;;;;17.13;7.65;;;;;;;20.26;54.93;100236.38;5053431;28;20032;-4
2021/07/07 00:23:28;;;;;;;20.02;7.53;;;;;;;20.33;53.78;100261.75;5052125;28;20041;-6
2021/07/07 00:25:55;;;;;;;19.58;8.68;;;;;;;19.80;54.34;100188.63;5036363;28;20033;-7
2021/07/07 00:28:22;;;;;;;17.95;7.75;;;;;;;19.90;54.73;100207.75;5033004;28;20048;-5
2021/07/07 00:30:50;;;;;;;17.48;8.40;;;;;;;19.65;54.61;100206.03;5033303;28;20045;-5
2021/07/07 00:33:17;;;;;;;17.60;8.48;;;;;;;19.69;54.81;100204.13;5040793;28;20043;-5
2021/07/07 00:35:44;;;;;;;17.73;8.07;;;;;;;19.77;54.76;100229.41;5052024;28;20045;-5
2021/07/07 00:38:12;;;;;;;16.05;8.10;;;;;;;20.02;55.27;100272.75;5052169;28;20487;-5
2021/07/07 00:40:40;;;;;;;17.65;7.90;;;;;;;19.80;55.30;100269.09;5053098;28;20051;-4
2021/07/07 00:43:07;;;;;;;15.57;7.88;;;;;;;19.65;55.43;100240.50;5052686;28;20041;-6
2021/07/07 00:45:33;;;;;;;18.73;8.98;;;;;;;19.78;55.35;100281.53;5053114;28;20433;-5
2021/07/07 00:47:58;;;;;;;16.67;8.90;;;;;;;19.36;55.72;100231.84;5047357;28;20135;-4
2021/07/07 00:50:25;;;;;;;18.42;8.50;;;;;;;19.77;55.02;100274.50;5032745;28;20125;-4
2021/07/07 00:52:51;;;;;;;15.05;8.40;;;;;;;19.74;55.23;100281.72;5032046;28;20412;-5
2021/07/07 00:55:17;;;;;;;21.35;9.18;;;;;;;19.62;55.56;100259.16;5032647;28;20123;-4
2021/07/07 00:57:44;;;;;;;15.50;8.27;;;;;;;19.81;54.87;100288.53;5032537;28;20072;-4
2021/07/07 01:00:22;;;;;;;17.33;8.52;;;;;;;19.71;55.22;100279.19;5032589;28;20044;-5
2021/07/07 01:02:54;;;;;;;15.07;8.07;;;;;;;19.99;55.31;100281.69;5032634;28;20102;-4
2021/07/07 01:05:20;;;;;;;18.50;7.72;;;;;;;19.65;54.74;100257.28;5034379;28;20099;-5
2021/07/07 01:07:48;;;;;;;21.65;8.10;;;;;;;19.77;55.90;100265.69;5032802;28;20516;-5
2021/07/07 01:10:16;;;;;;;17.38;8.10;;;;;;;19.72;54.45;100262.34;5032788;28;20582;-4
2021/07/07 01:12:43;;;;;;;18.17;8.45;;;;;;;19.92;53.75;100254.53;5032632;28;20450;-4
2021/07/07 01:15:15;;;;;;;17.73;8.23;;;;;;;19.73;53.78;100242.88;5032697;28;20532;-5
2021/07/07 01:17:41;;;;;;;16.55;8.43;;;;;;;20.06;53.64;100303.53;5032713;28;20107;-5
2021/07/07 01:20:12;;;;;;;18.27;8.35;;;;;;;19.78;54.01;100260.31;5031541;28;20132;-4
2021/07/07 01:22:40;;;;;;;16.52;8.90;;;;;;;19.81;54.07;100281.44;5032416;28;20048;-4
2021/07/07 01:25:08;;;;;;;13.02;7.40;;;;;;;19.76;55.96;100274.56;5032375;28;20450;-4
2021/07/07 01:27:39;;;;;;;11.77;6.47;;;;;;;19.71;55.45;100245.59;5031199;28;20546;-5
2021/07/07 01:30:08;;;;;;;16.92;7.80;;;;;;;19.88;54.57;100249.38;5032946;28;20103;-5
2021/07/07 01:32:34;;;;;;;16.23;8.23;;;;;;;20.12;53.75;100306.81;5032246;28;20037;-4
2021/07/07 01:35:02;;;;;;;17.88;8.32;;;;;;;19.92;54.03;100273.09;5032451;28;20096;-5
2021/07/07 01:37:29;;;;;;;20.65;8.02;;;;;;;19.69;54.33;100251.88;5032535;28;20037;-5
2021/07/07 01:39:55;;;;;;;15.90;8.13;;;;;;;19.89;54.61;100313.00;5031197;28;20456;-4
2021/07/07 01:42:21;;;;;;;20.35;8.15;;;;;;;19.70;54.75;100312.81;5032154;28;20111;-5
2021/07/07 01:44:47;;;;;;;13.15;7.45;;;;;;;19.27;55.10;100248.97;5032355;28;20042;-5
2021/07/07 01:47:13;;;;;;;18.38;8.25;;;;;;;19.59;55.19;100329.09;5030981;28;20103;-4
2021/07/07 01:49:40;;;;;;;15.02;7.63;;;;;;;19.55;55.59;100306.25;5032491;28;20045;-4
2021/07/07 01:52:06;;;;;;;17.80;8.70;;;;;;;19.70;54.88;100319.88;5032108;28;20042;-5
2021/07/07 01:54:32;;;;;;;14.95;7.80;;;;;;;19.70;54.88;100333.13;5032150;28;20048;-5
2021/07/07 01:56:58;;;;;;;11.43;6.90;;;;;;;19.96;56.55;100308.34;5032105;28;20045;-5
2021/07/07 01:59:24;;;;;;;15.13;7.68;;;;;;;19.80;54.48;100268.22;5032093;28;20467;-4
2021/07/07 02:01:51;;;;;;;11.90;7.28;;;;;;;20.36;53.68;100337.78;5030660;28;20033;-4
2021/07/07 02:04:17;;;;;;;10.38;6.97;;;;;;;20.40;54.39;100271.22;5034649;28;20045;-5
2021/07/07 02:06:43;;;;;;;15.57;7.65;;;;;;;20.72;52.35;100287.63;5035841;28;20041;-5
2021/07/07 02:09:09;;;;;;;11.63;7.40;;;;;;;21.12;53.44;100333.78;5034487;28;20570;-5
2021/07/07 02:11:35;;;;;;;10.88;6.45;;;;;;;20.92;52.80;100297.41;5035565;28;20052;-4
2021/07/07 02:14:02;;;;;;;17.20;9.25;;;;;;;20.84;51.58;100278.28;5035742;28;20049;-4
2021/07/07 02:16:28;;;;;;;13.65;7.68;;;;;;;21.06;52.15;100302.16;5034357;28;20041;-4
2021/07/07 02:18:55;;;;;;;22.45;13.48;;;;;;;21.15;52.14;100338.09;5035194;28;20061;-3
2021/07/07 02:21:21;;;;;;;22.45;15.95;;;;;;;21.09;51.40;100319.75;5035274;28;20045;-4
2021/07/07 02:23:47;;;;;;;12.93;9.35;;;;;;;20.87;52.44;100287.91;5035700;28;20053;-4
2021/07/07 02:26:13;;;;;;;22.80;15.63;;;;;;;20.79;51.85;100293.53;5035600;28;20574;-4
2021/07/07 02:28:40;;;;;;;23.40;14.32;;;;;;;20.96;52.45;100346.88;5035480;28;20457;-4
2021/07/07 02:31:06;;;;;;;20.33;11.43;;;;;;;20.92;52.38;100342.59;5035158;28;20033;-5
2021/07/07 02:33:32;;;;;;;20.50;12.85;;;;;;;20.69;52.01;100286.84;5033892;28;20042;-5
2021/07/07 02:35:58;;;;;;;14.98;9.68;;;;;;;21.09;53.16;100322.41;5033926;28;20041;-5
2021/07/07 02:38:25;;;;;;;23.52;12.30;;;;;;;20.97;51.25;100292.75;5035100;28;20045;-5
2021/07/07 02:40:55;;;;;;;17.77;11.18;;;;;;;20.82;51.44;100298.75;5034959;28;20041;-5
2021/07/07 02:43:21;;;;;;;16.83;9.90;;;;;;;21.10;51.27;100356.03;5034840;28;20045;-4
2021/07/07 02:45:47;;;;;;;13.88;7.47;;;;;;;20.84;52.21;100307.50;5034886;28;20038;-4
2021/07/07 02:48:15;;;;;;;17.60;10.60;;;;;;;20.95;52.01;100365.50;5034871;28;20119;-4
2021/07/07 02:50:42;;;;;;;18.55;11.10;;;;;;;20.35;52.86;100313.03;5035037;28;20045;-5
2021/07/07 02:53:11;;;;;;;17.77;9.73;;;;;;;20.63;52.97;100363.22;5034814;28;20091;-5
2021/07/07 02:55:37;;;;;;;14.60;9.07;;;;;;;20.66;53.40;100367.53;5034752;28;20496;-5
2021/07/07 02:58:05;;;;;;;18.90;10.85;;;;;;;20.17;53.57;100306.66;5035021;28;20045;-5
2021/07/07 03:00:43;;;;;;;22.05;12.05;;;;;;;20.19;54.76;100319.84;5034764;28;20417;-3
2021/07/07 03:03:10;;;;;;;20.85;10.93;;;;;;;20.37;53.62;100311.16;5034700;28;20041;-4
2021/07/07 03:05:44;;;;;;;22.88;11.93;;;;;;;20.66;53.28;100357.81;5034872;28;20548;-4
2021/07/07 03:08:11;;;;;;;34.88;11.65;;;;;;;20.92;53.66;100371.81;5034663;28;20053;-5
2021/07/07 03:10:39;;;;;;;14.70;8.10;;;;;;;20.97;54.21;100374.31;5034528;28;20041;-4
2021/07/07 03:13:05;;;;;;;24.23;10.27;;;;;;;21.08;54.42;100380.03;5034788;28;20041;-4
2021/07/07 03:15:33;;;;;;;14.77;9.45;;;;;;;21.13;54.39;100362.09;5033423;28;20048;-4
2021/07/07 03:17:59;;;;;;;11.43;7.10;;;;;;;21.42;52.98;100346.69;5034482;28;20048;-4
2021/07/07 03:20:25;;;;;;;21.67;12.68;;;;;;;21.51;52.85;100363.16;5034125;28;20087;-5
2021/07/07 03:22:51;;;;;;;12.02;7.35;;;;;;;21.67;52.29;100323.47;5034339;28;20041;-5
2021/07/07 03:25:17;;;;;;;20.20;10.43;;;;;;;21.54;52.10;100318.72;5034527;28;20092;-5
2021/07/07 03:27:44;;;;;;;19.92;10.88;;;;;;;21.63;52.54;100373.31;5034116;28;20120;-14
2021/07/07 03:30:10;;;;;;;21.75;11.15;;;;;;;21.38;54.11;100361.06;5034161;28;20042;-4
2021/07/07 03:32:36;;;;;;;13.30;7.93;;;;;;;21.83;52.29;100388.38;5034182;28;20045;-4
2021/07/07 03:35:04;;;;;;;13.35;8.02;;;;;;;21.46;52.17;100328.81;5034034;28;20095;-4
2021/07/07 03:37:30;;;;;;;11.45;6.93;;;;;;;21.87;52.20;100378.47;5032722;28;20053;-4
2021/07/07 03:39:56;;;;;;;11.70;8.00;;;;;;;22.08;51.52;100384.59;5033904;28;20501;-4
2021/07/07 03:42:22;;;;;;;12.02;7.00;;;;;;;22.05;50.89;100321.69;5033722;28;20033;-5
2021/07/07 03:44:49;;;;;;;11.32;7.35;;;;;;;22.29;50.51;100333.00;5033735;28;20485;-4
2021/07/07 03:47:15;;;;;;;13.77;8.68;;;;;;;22.75;50.33;100395.66;5033686;28;20133;-5
2021/07/07 03:49:41;;;;;;;17.40;9.98;;;;;;;22.53;50.13;100361.22;5034006;28;20120;-4
2021/07/07 03:52:07;;;;;;;14.93;8.30;;;;;;;22.45;51.16;100409.56;5033949;28;20401;-4
2021/07/07 03:54:34;;;;;;;13.98;8.45;;;;;;;22.43;50.82;100398.09;5034026;28;20542;-4
2021/07/07 03:57:00;;;;;;;14.02;7.30;;;;;;;22.39;51.04;100391.19;5033873;28;20519;-4
2021/07/07 03:59:27;;;;;;;13.38;8.48;;;;;;;22.34;50.81;100350.56;5033879;28;20488;-5
2021/07/07 04:01:53;;;;;;;12.45;8.10;;;;;;;22.60;50.43;100402.63;5034071;28;20053;-4
2021/07/07 04:04:19;;;;;;;13.95;8.40;;;;;;;22.41;50.62;100352.91;5032619;28;20044;-4
2021/07/07 04:06:45;;;;;;;17.45;11.85;;;;;;;22.06;51.55;100357.16;5033741;28;20518;-5
2021/07/07 04:09:13;;;;;;;12.25;8.13;;;;;;;22.17;50.72;100348.69;5033583;28;20503;-5
2021/07/07 04:11:41;;;;;;;17.50;9.77;;;;;;;22.54;50.67;100378.94;5032082;28;20049;-5
2021/07/07 04:14:09;;;;;;;17.58;10.20;;;;;;;22.41;50.69;100383.97;5033464;28;20056;-5
2021/07/07 04:16:35;;;;;;;16.83;10.20;;;;;;;22.29;50.89;100396.03;5033113;28;20033;-5
2021/07/07 04:19:01;;;;;;;14.70;10.05;;;;;;;21.92;50.85;100349.84;5031699;28;20101;-5
2021/07/07 04:21:27;;;;;;;12.65;7.43;;;;;;;22.58;50.23;100409.81;5033211;28;20042;-5
2021/07/07 04:23:53;;;;;;;21.05;9.63;;;;;;;22.38;50.01;100369.00;5034287;28;20401;-4
2021/07/07 04:26:19;;;;;;;17.38;8.32;;;;;;;22.47;49.94;100359.72;5033228;28;20405;-5
2021/07/07 04:28:45;;;;;;;13.88;8.68;;;;;;;22.30;50.11;100361.34;5031822;28;20043;-6
2021/07/07 04:31:11;;;;;;;21.17;10.18;;;;;;;22.37;50.02;100382.41;5032151;28;20045;-4
2021/07/07 04:33:37;;;;;;;11.93;7.55;;;;;;;22.65;50.24;100407.75;5032986;28;20500;-4
2021/07/07 04:36:03;;;;;;;13.93;8.05;;;;;;;22.61;49.97;100389.22;5033203;28;20033;-4
2021/07/07 04:38:29;;;;;;;15.23;7.93;;;;;;;22.60;48.71;100357.31;5033142;28;20049;-5
2021/07/07 04:40:55;;;;;;;13.80;8.55;;;;;;;22.79;48.87;100415.94;5031675;28;20047;-5
2021/07/07 04:43:21;;;;;;;13.23;8.20;;;;;;;22.75;49.97;100409.88;5032785;28;20519;-5
2021/07/07 04:45:47;;;;;;;11.93;8.32;;;;;;;22.81;49.54;100387.38;5032900;28;20456;-5
2021/07/07 04:48:14;;;;;;;11.85;7.85;;;;;;;23.02;48.92;100403.25;5033164;28;20080;-5
2021/07/07 04:50:40;;;;;;;12.23;7.50;;;;;;;23.18;49.02;100432.72;5033021;28;20041;-5
2021/07/07 04:53:06;;;;;;;12.93;7.80;;;;;;;23.07;47.75;100411.91;5033059;28;20453;-5
2021/07/07 04:55:32;;;;;;;19.30;8.77;;;;;;;22.86;48.42;100385.34;5032719;28;20064;-4
2021/07/07 04:57:58;;;;;;;11.18;6.72;;;;;;;23.10;48.90;100399.28;5032717;28;20045;-4
2021/07/07 05:00:25;;;;;;;14.18;8.68;;;;;;;23.37;47.72;100428.19;5032638;28;20045;-4
2021/07/07 05:02:52;;;;;;;17.50;8.85;;;;;;;23.50;46.88;100430.25;5032778;28;20493;-4
2021/07/07 05:05:21;;;;;;;12.13;6.90;;;;;;;23.40;48.18;100406.69;5031342;28;20049;-4
2021/07/07 05:07:49;;;;;;;13.45;7.22;;;;;;;23.56;47.97;100420.09;5032444;28;20052;-4
2021/07/07 05:10:16;;;;;;;13.95;8.30;;;;;;;23.64;46.91;100426.88;5032726;28;20092;-4
2021/07/07 05:12:43;;;;;;;12.88;8.50;;;;;;;23.61;46.80;100434.06;5032569;28;20045;-4
2021/07/07 05:15:12;;;;;;;11.90;7.45;;;;;;;23.65;47.07;100436.56;5032263;28;20045;-4
2021/07/07 05:17:39;;;;;;;17.15;8.57;;;;;;;23.54;46.47;100432.66;5032394;28;20368;-4
2021/07/07 05:20:06;;;;;;;13.13;7.55;;;;;;;23.68;46.90;100431.09;5031161;28;20435;-4
2021/07/07 05:22:32;;;;;;;9.75;7.38;;;;;;;23.68;47.82;100441.78;5032430;28;20042;-4
2021/07/07 05:24:58;;;;;;;15.18;8.60;;;;;;;23.78;47.65;100445.69;5031403;28;20477;-4
2021/07/07 05:27:25;;;;;;;15.95;9.00;;;;;;;23.77;46.21;100414.59;5032236;28;20044;-4
2021/07/07 05:29:51;;;;;;;11.75;7.13;;;;;;;24.02;47.03;100440.03;5032370;28;20080;-4
2021/07/07 05:32:21;;;;;;;11.52;7.57;;;;;;;24.09;46.94;100444.06;5032647;28;20041;-5
2021/07/07 05:34:50;;;;;;;15.43;9.52;;;;;;;23.93;45.66;100420.00;5028226;28;20502;-4
2021/07/07 05:37:20;;;;;;;12.77;7.38;;;;;;;24.15;46.68;100451.78;5012792;28;20416;-4
2021/07/07 05:39:51;;;;;;;14.90;8.18;;;;;;;24.09;45.74;100450.31;5016191;28;20049;-4
2021/07/07 05:42:18;;;;;;;16.58;8.90;;;;;;;24.10;45.63;100449.34;5016639;28;20057;-5
2021/07/07 05:44:45;;;;;;;14.82;9.27;;;;;;;24.11;45.21;100456.41;5015032;28;20041;-4
2021/07/07 05:47:11;;;;;;;13.13;8.18;;;;;;;24.25;45.92;100452.16;5016963;28;20056;-5
2021/07/07 05:49:38;;;;;;;13.70;8.38;;;;;;;24.30;45.74;100454.56;5016301;28;20088;-5
2021/07/07 05:52:04;;;;;;;16.48;9.95;;;;;;;24.23;44.56;100452.22;5016212;28;20611;-5
2021/07/07 05:54:33;;;;;;;14.90;7.70;;;;;;;24.39;46.20;100456.72;5016449;28;20053;-5
2021/07/07 05:57:00;;;;;;;15.25;7.72;;;;;;;24.53;43.92;100456.81;5016089;28;20040;-5
2021/07/07 05:59:26;;;;;;;14.65;7.15;;;;;;;24.57;43.18;100463.72;5016467;28;20129;-5
2021/07/07 06:01:52;;;;;;;9.90;6.32;;;;;;;24.53;43.90;100462.16;5016163;28;20033;-5
2021/07/07 06:04:18;;;;;;;12.95;6.45;;;;;;;24.51;44.18;100450.72;5016391;28;20045;-5
2021/07/07 06:06:44;;;;;;;11.55;6.40;;;;;;;24.63;42.34;100451.88;5015281;28;20397;-5
2021/07/07 06:09:10;;;;;;;15.57;7.78;;;;;;;24.60;42.20;100458.22;5016134;28;20108;-6
2021/07/07 06:11:37;;;;;;;7.55;4.63;;;;;;;24.54;39.51;100445.19;5015895;28;20464;-6
2021/07/07 06:14:03;;;;;;;8.02;3.78;;;;;;;24.58;37.97;100454.75;5016332;28;20512;-5
2021/07/07 06:16:30;;;;;;;9.75;3.78;;;;;;;24.48;40.78;100442.84;5016043;28;20068;-5
2021/07/07 06:18:56;;;;;;;9.07;3.55;;;;;;;24.62;37.64;100442.09;5015681;28;20053;-5
2021/07/07 06:21:22;;;;;;;5.18;2.75;;;;;;;24.68;36.94;100448.94;5015975;28;20496;-6
2021/07/07 06:23:48;;;;;;;6.00;3.80;;;;;;;24.74;40.51;100453.94;5015844;28;20409;-5
2021/07/07 06:26:14;;;;;;;7.78;4.15;;;;;;;24.75;40.17;100459.19;5014276;28;20042;-5
2021/07/07 06:28:40;;;;;;;5.50;3.05;;;;;;;24.60;36.71;100441.31;5016103;28;20080;-5
2021/07/07 06:31:07;;;;;;;7.13;4.88;;;;;;;24.74;39.84;100461.97;5015817;28;20042;-5
2021/07/07 06:33:33;;;;;;;5.03;3.05;;;;;;;24.77;38.59;100457.31;5015468;28;20069;-5
2021/07/07 06:35:59;;;;;;;9.18;3.88;;;;;;;24.76;36.87;100450.22;5015682;28;20037;-5
2021/07/07 06:38:25;;;;;;;9.02;4.72;;;;;;;24.97;37.25;100459.81;5015261;28;20046;-5
2021/07/07 06:40:52;;;;;;;5.50;2.85;;;;;;;24.93;36.01;100465.31;5015311;28;20096;-5
2021/07/07 06:43:19;;;;;;;5.47;3.53;;;;;;;24.89;36.84;100446.88;5015519;28;20041;-5
2021/07/07 06:45:47;;;;;;;5.60;3.35;;;;;;;24.99;35.64;100463.25;5015519;28;20112;-5
2021/07/07 06:48:13;;;;;;;6.75;3.25;;;;;;;25.00;36.45;100455.13;5015407;28;20045;-5
2021/07/07 06:50:40;;;;;;;5.97;3.00;;;;;;;25.06;36.31;100457.44;5015104;28;20060;-5
2021/07/07 06:53:06;;;;;;;4.95;2.78;;;;;;;25.16;35.54;100462.28;5015350;28;20100;-5
2021/07/07 06:55:32;;;;;;;7.45;4.10;;;;;;;25.19;40.31;100467.47;5015343;28;20037;-6
2021/07/07 06:57:58;;;;;;;7.50;2.92;;;;;;;25.24;35.67;100460.03;5015259;28;20044;-4
2021/07/07 07:00:25;;;;;;;4.82;2.70;;;;;;;25.28;35.36;100461.56;5014886;28;20172;-5
2021/07/07 07:02:51;;;;;;;6.60;3.10;;;;;;;25.33;37.91;100463.97;5014968;28;20129;-5
2021/07/07 07:05:19;;;;;;;6.93;3.10;;;;;;;25.41;35.66;100470.63;5014909;28;20490;-5
2021/07/07 07:07:46;;;;;;;5.45;3.08;;;;;;;25.55;35.92;100468.94;5015045;28;20033;-6
2021/07/07 07:10:14;;;;;;;9.18;4.18;;;;;;;25.60;38.49;100461.50;5014903;28;20056;-5
2021/07/07 07:12:41;;;;;;;7.82;3.72;;;;;;;25.51;34.85;100462.91;5014646;28;20045;-6
2021/07/07 07:15:12;;;;;;;7.55;4.60;;;;;;;25.37;36.25;100447.69;5014918;28;20413;-11
2021/07/07 07:17:39;;;;;;;6.95;4.20;;;;;;;25.71;34.95;100460.88;5013322;28;20583;-5
2021/07/07 07:20:08;;;;;;;5.85;4.38;;;;;;;25.75;39.09;100463.25;5014726;28;20510;-7
2021/07/07 07:22:36;;;;;;;7.38;3.20;;;;;;;25.53;34.76;100447.63;5014472;28;20079;0
2021/07/07 07:25:04;;;;;;;9.27;4.05;;;;;;;25.47;36.60;100458.69;5014455;28;20131;0
2021/07/07 07:27:30;;;;;;;5.93;3.42;;;;;;;25.48;35.58;100455.06;5014376;28;20053;0
2021/07/07 07:29:57;;;;;;;8.20;4.72;;;;;;;25.45;39.79;100447.22;5013213;28;20053;1
2021/07/07 07:32:23;;;;;;;8.15;4.20;;;;;;;25.64;35.04;100451.47;5014362;28;20073;1
2021/07/07 07:34:49;;;;;;;9.43;4.32;;;;;;;25.82;37.83;100463.72;5014579;28;20493;1
2021/07/07 07:37:23;;;;;;;7.50;3.58;;;;;;;25.87;34.64;100460.78;5014229;28;20452;1
2021/07/07 07:39:52;;;;;;;6.07;3.53;;;;;;;25.61;34.36;100455.19;4996592;28;20041;2
2021/07/07 07:42:19;;;;;;;7.22;3.47;;;;;;;25.64;35.14;100457.66;5013969;28;20038;1
2021/07/07 07:44:46;;;;;;;9.05;3.72;;;;;;;25.72;34.88;100457.22;5014726;28;20088;1
2021/07/07 07:47:15;;;;;;;10.18;3.60;;;;;;;25.66;35.97;100462.97;5014077;28;20460;1
2021/07/07 07:49:41;;;;;;;7.25;4.15;;;;;;;25.64;38.59;100446.97;5013999;28;20038;1
2021/07/07 07:52:08;;;;;;;7.63;3.22;;;;;;;25.88;38.15;100449.13;5014198;28;20034;0
2021/07/07 07:54:35;;;;;;;10.15;3.08;;;;;;;26.14;34.38;100460.94;5014102;28;20088;0
2021/07/07 07:57:02;;;;;;;6.20;3.80;;;;;;;26.10;34.94;100437.97;5012801;28;20076;1
2021/07/07 07:59:28;;;;;;;8.65;4.32;;;;;;;26.32;33.82;100458.94;4996213;28;20046;1
2021/07/07 08:01:55;;;;;;;8.85;4.97;;;;;;;26.51;33.90;100461.28;5014285;28;20421;0
2021/07/07 08:04:21;;;;;;;7.35;4.40;;;;;;;26.54;34.16;100458.44;5013753;28;20084;0
2021/07/07 08:06:47;;;;;;;9.65;3.45;;;;;;;26.51;33.77;100468.47;5013629;28;20037;1
2021/07/07 08:09:13;;;;;;;6.22;2.95;;;;;;;26.71;33.18;100467.19;5013542;28;20096;0
2021/07/07 08:11:42;;;;;;;5.45;3.42;;;;;;;26.50;33.35;100448.84;5014757;28;20038;0
2021/07/07 08:14:09;;;;;;;6.72;2.88;;;;;;;26.51;32.68;100468.47;5031928;28;20045;1
2021/07/07 08:16:37;;;;;;;5.75;3.38;;;;;;;26.59;32.58;100479.56;5034510;28;20088;0
2021/07/07 08:19:03;;;;;;;8.60;3.97;;;;;;;26.68;32.13;100472.75;5032914;28;20060;0
2021/07/07 08:21:29;;;;;;;5.00;3.05;;;;;;;26.75;32.85;100484.84;5034683;28;20045;0
2021/07/07 08:23:55;;;;;;;10.52;3.90;;;;;;;26.65;33.50;100479.19;5031241;28;20045;1
2021/07/07 08:26:21;;;;;;;4.00;2.65;;;;;;;26.57;32.29;100487.72;5031110;28;20037;1
2021/07/07 08:28:47;;;;;;;13.60;4.38;;;;;;;26.49;35.30;100483.78;5030328;28;20119;0
2021/07/07 08:31:13;;;;;;;8.60;3.45;;;;;;;26.57;37.97;100493.09;5031843;28;20150;0
2021/07/07 08:33:39;;;;;;;6.57;2.80;;;;;;;26.73;32.72;100482.25;5031498;28;20037;0
2021/07/07 08:36:06;;;;;;;10.10;3.30;;;;;;;26.78;36.92;100484.66;5031724;28;20029;1
2021/07/07 08:38:32;;;;;;;16.58;7.25;;;;;;;26.84;34.59;100489.63;5021318;28;20033;0
2021/07/07 08:41:02;;;;;;;7.22;3.45;;;;;;;26.96;32.89;100482.59;5031570;28;20454;0
2021/07/07 08:43:30;;;;;;;6.82;2.92;;;;;;;27.08;35.88;100491.66;5024872;28;20037;1
2021/07/07 08:45:58;;;;;;;6.65;3.88;;;;;;;27.11;34.16;100494.13;5032024;28;20516;-1
2021/07/07 08:48:25;;;;;;;5.45;3.17;;;;;;;27.13;32.42;100484.19;5031236;28;20033;0
2021/07/07 08:50:53;;;;;;;10.32;4.85;;;;;;;27.12;35.25;100482.44;5029416;28;20100;0
2021/07/07 08:53:19;;;;;;;11.25;3.58;;;;;;;27.04;32.96;100468.69;5032095;28;20489;0
2021/07/07 08:55:47;;;;;;;7.63;3.10;;;;;;;27.18;36.75;100470.44;5030833;28;20037;0
2021/07/07 08:58:13;;;;;;;8.52;3.88;;;;;;;27.25;37.42;100493.22;5029761;28;20053;0
2021/07/07 09:00:40;;;;;;;5.72;2.78;;;;;;;27.08;33.20;100487.16;5029392;28;20470;1
2021/07/07 09:03:13;;;;;;;4.55;2.95;;;;;;;27.09;33.03;100488.00;5014651;28;20444;1
2021/07/07 09:05:49;;;;;;;5.80;3.03;;;;;;;27.29;33.95;100493.91;5031034;28;20049;1
2021/07/07 09:08:26;;;;;;;6.00;3.20;;;;;;;27.16;31.74;100489.31;5030976;28;20049;0
2021/07/07 09:10:55;;;;;;;10.25;3.03;;;;;;;27.09;36.11;100485.31;5031112;28;20070;0
2021/07/07 09:13:22;;;;;;;5.03;3.13;;;;;;;27.08;32.40;100491.66;5032172;28;20049;0
2021/07/07 09:15:50;;;;;;;3.80;3.10;;;;;;;27.23;32.23;100485.28;5034288;28;20053;0
2021/07/07 09:18:33;;;;;;;11.82;3.92;;;;;;;27.12;36.31;100484.25;5034383;28;20042;0
2021/07/07 09:20:59;;;;;;;6.78;3.13;;;;;;;27.12;36.50;100484.25;5034579;28;20041;1
2021/07/07 09:23:29;;;;;;;5.18;2.60;;;;;;;27.27;32.74;100483.25;5034822;28;20080;0
2021/07/07 09:25:57;;;;;;;7.95;3.13;;;;;;;27.31;30.88;100490.16;5034657;28;20125;1
2021/07/07 09:28:28;;;;;;;9.13;2.90;;;;;;;27.44;34.95;100482.13;5035526;28;20384;0
2021/07/07 09:31:00;;;;;;;5.18;2.22;;;;;;;27.62;29.19;100485.41;5036458;28;20095;0
2021/07/07 09:33:27;;;;;;;4.65;2.58;;;;;;;27.66;29.14;100470.78;5036866;28;20092;0
2021/07/07 09:36:17;;;;;;;6.47;3.33;;;;;;;27.82;30.07;100485.84;5036095;28;20044;0
2021/07/07 09:38:43;;;;;;;6.05;2.58;;;;;;;27.82;31.34;100473.31;5032047;28;20500;0
2021/07/07 09:41:14;;;;;;;5.72;2.95;;;;;;;27.98;30.49;100486.53;5034569;28;20106;1
2021/07/07 09:43:54;;;;;;;6.75;3.17;;;;;;;27.80;31.05;100472.53;5036095;28;20495;1
2021/07/07 09:46:22;;;;;;;4.83;2.87;;;;;;;27.88;30.75;100486.28;5037207;28;20574;0
2021/07/07 09:48:50;;;;;;;5.45;3.25;;;;;;;27.95;30.72;100476.00;5052557;28;20297;-1
2021/07/07 09:51:17;;;;;;;8.90;3.60;;;;;;;28.07;30.37;100485.06;5034123;28;20037;0
2021/07/07 09:53:43;;;;;;;6.05;3.13;;;;;;;27.79;35.24;100465.44;5033110;28;20037;1
2021/07/07 09:56:10;;;;;;;3.42;2.50;;;;;;;28.02;29.74;100477.31;5032971;28;20506;0
2021/07/07 09:58:36;;;;;;;8.18;2.72;;;;;;;27.93;35.13;100480.63;5034480;28;20036;0
2021/07/07 10:01:03;;;;;;;8.70;3.60;;;;;;;27.96;29.66;100464.25;5034591;28;20505;1
2021/07/07 10:03:31;;;;;;;7.13;3.00;;;;;;;27.83;34.71;100469.63;5034816;28;20672;1
2021/07/07 10:06:01;;;;;;;4.32;2.60;;;;;;;28.13;29.87;100475.69;5035745;28;20041;0
2021/07/07 10:08:29;;;;;;;5.53;3.33;;;;;;;27.86;30.13;100468.56;5035923;28;20103;0
2021/07/07 10:10:57;;;;;;;6.20;3.42;;;;;;;27.96;29.83;100466.94;5035490;28;20033;0
2021/07/07 10:13:26;;;;;;;5.55;2.95;;;;;;;27.99;32.94;100471.25;5036069;28;20040;1
2021/07/07 10:15:53;;;;;;;6.00;3.00;;;;;;;27.94;30.73;100468.03;5035576;28;20485;1
2021/07/07 10:18:20;;;;;;;6.40;3.95;;;;;;;27.97;31.30;100462.47;5035153;28;20461;1
2021/07/07 10:20:48;;;;;;;5.93;3.15;;;;;;;28.20;31.63;100467.09;5036361;28;20061;1
2021/07/07 10:23:16;;;;;;;4.50;3.03;;;;;;;28.13;29.99;100457.72;5035526;28;20041;1
2021/07/07 10:25:42;;;;;;;7.43;3.05;;;;;;;28.28;32.67;100471.06;5032768;28;20136;1
2021/07/07 10:28:13;;;;;;;5.93;3.00;;;;;;;28.48;29.63;100461.56;5034620;28;20051;1
2021/07/07 10:30:52;;;;;;;;;;;;;;;28.65;29.34;100463.91;5051928;28;20045;1
2021/07/07 10:33:20;;;;;;;6.82;4.10;;;;;;;28.74;29.88;100473.16;5042240;28;19925;1
2021/07/07 10:35:47;;;;;;;5.20;3.55;;;;;;;28.54;29.27;100442.31;5035896;28;20424;1
2021/07/07 10:38:17;;;;;;;5.38;3.45;;;;;;;28.27;30.03;100420.97;5024657;28;20492;1
2021/07/07 10:40:55;;;;;;;6.35;3.13;;;;;;;28.37;29.80;100443.53;4986655;28;20103;1
2021/07/07 10:43:46;;;;;;;7.93;3.40;;;;;;;28.60;30.76;100455.28;5025239;28;20537;-5
2021/07/07 10:46:33;;;;;;;5.72;3.15;;;;;;;28.53;31.10;100457.56;4990582;28;20157;-4
2021/07/07 10:49:22;;;;;;;5.93;4.18;;;;;;;28.99;28.57;100456.03;5029326;28;20045;-3
2021/07/07 10:51:51;;;;;;;4.88;3.70;;;;;;;28.54;28.79;100451.22;5017412;28;20049;-5
2021/07/07 10:54:25;;;;;;;6.78;3.38;;;;;;;28.31;29.47;100443.97;5030084;28;20045;-2
2021/07/07 10:56:52;;;;;;;7.88;3.33;;;;;;;28.22;29.89;100440.97;5006424;28;20147;-3
2021/07/07 10:59:38;;;;;;;6.18;3.42;;;;;;;28.58;29.19;100449.19;5033833;28;20041;-3
2021/07/07 11:02:30;;;;;;;6.38;3.25;;;;;;;28.65;31.20;100441.50;5028762;28;20045;-4
2021/07/07 11:05:04;;;;;;;8.65;2.80;;;;;;;28.75;34.08;100453.34;5028709;28;20072;-4
2021/07/07 11:07:39;;;;;;;;;;;;;;;28.87;28.23;100448.88;5010788;28;20035;-3
2021/07/07 11:10:10;;;;;;;8.32;3.50;;;;;;;28.90;29.19;100450.50;5026357;28;19956;-4
2021/07/07 11:12:39;;;;;;;6.78;2.70;;;;;;;29.02;33.54;100450.44;5003921;28;20038;-3
2021/07/07 11:15:10;;;;;;;6.43;3.72;;;;;;;29.20;28.84;100456.28;5025700;28;20049;-4
2021/07/07 11:17:51;;;;;;;10.27;3.73;;;;;;;29.28;30.93;100452.16;5010510;28;20491;-3
2021/07/07 11:20:22;;;;;;;7.18;3.13;;;;;;;29.15;33.49;100462.97;5023492;28;20391;-4
2021/07/07 11:23:00;;;;;;;5.45;3.80;;;;;;;29.12;29.18;100438.97;5014815;28;20141;-3
2021/07/07 11:25:27;;;;;;;6.65;3.58;;;;;;;28.93;29.53;100444.88;5027423;28;20512;-3
2021/07/07 11:27:54;;;;;;;6.95;3.88;;;;;;;28.84;28.66;100441.91;5031821;28;20524;1
2021/07/07 11:30:22;;;;;;;4.00;2.75;;;;;;;28.90;28.87;100445.13;5025109;28;20528;1
2021/07/07 11:32:50;;;;;;;7.25;3.22;;;;;;;28.60;30.75;100411.41;5026776;28;20568;1
2021/07/07 11:35:37;;;;;;;8.30;2.70;;;;;;;28.55;35.07;100442.19;5021540;28;20060;0